Time;durP1;ratioP1;P1;durP2;ratioP2;P2;SDS_P1;SDS_P2;PMS_P1;PMS_P2;Temp;Humidity;BMP_temperature;BMP_pressure;BME280_temperature;BME280_humidity;BME280_pressure;Samples;Min_cycle;Max_cycle;Signal;HPM_P1;HPM_P2
2021/10/08 00:01:46;;;;;;;4.07;2.70;;;;;;;8.83;nan;101723.97;5070416;28;20028;-75
2021/10/08 00:04:11;;;;;;;3.65;2.47;;;;;;;8.88;nan;101733.22;5069923;28;20032;-75
2021/10/08 00:06:36;;;;;;;2.80;2.40;;;;;;;8.80;nan;101740.84;5053172;28;20131;-75
2021/10/08 00:09:02;;;;;;;;;;;;;;;8.79;nan;101736.50;5071506;28;20397;-75
2021/10/08 00:11:28;;;;;;;12.20;3.20;;;;;;;8.85;nan;101737.88;5071611;28;19916;-75
2021/10/08 00:13:53;;;;;;;3.70;2.78;;;;;;;8.93;nan;101733.72;5051923;28;20431;-75
2021/10/08 00:16:19;;;;;;;5.03;2.47;;;;;;;8.84;nan;101733.56;5056494;28;20123;-75
2021/10/08 00:18:46;;;;;;;5.03;2.47;;;;;;;8.82;nan;101730.19;5071398;28;20043;-75
2021/10/08 00:21:11;;;;;;;3.65;2.75;;;;;;;8.88;nan;101737.66;5070520;28;20036;-74
2021/10/08 00:23:37;;;;;;;2.97;2.50;;;;;;;8.85;nan;101736.09;5071264;28;20032;-75
2021/10/08 00:26:02;;;;;;;3.45;2.78;;;;;;;8.88;nan;101737.66;5071585;28;20052;-75
2021/10/08 00:28:28;;;;;;;3.40;2.47;;;;;;;8.91;nan;101738.28;5052813;28;20032;-75
2021/10/08 00:30:53;;;;;;;4.05;2.80;;;;;;;8.89;nan;101739.31;5053059;28;20324;-76
2021/10/08 00:33:19;;;;;;;4.85;3.08;;;;;;;8.92;nan;101739.13;5071403;28;20036;-75
2021/10/08 00:35:44;;;;;;;3.45;2.38;;;;;;;8.87;nan;101733.34;5052217;28;20032;-75
2021/10/08 00:38:10;;;;;;;4.57;2.88;;;;;;;8.86;nan;101729.84;5070629;28;20064;-75
2021/10/08 00:40:37;;;;;;;5.68;2.63;;;;;;;8.78;nan;101737.47;5069603;28;20451;-75
2021/10/08 00:43:03;;;;;;;4.05;2.75;;;;;;;8.84;nan;101733.56;5070752;28;20126;-75
2021/10/08 00:45:29;;;;;;;4.97;2.65;;;;;;;8.81;nan;101739.06;5070848;28;20037;-75
2021/10/08 00:47:59;;;;;;;3.40;2.65;;;;;;;8.82;nan;101723.13;5070339;28;20040;-75
2021/10/08 00:50:24;;;;;;;6.32;2.55;;;;;;;8.85;nan;101728.16;5070011;28;20104;-75
2021/10/08 00:52:50;;;;;;;3.83;2.80;;;;;;;8.83;nan;101721.31;5070581;28;20560;-75
2021/10/08 00:55:16;;;;;;;3.00;2.28;;;;;;;8.79;nan;101725.13;5070144;28;20059;-75
2021/10/08 00:57:45;;;;;;;6.43;2.72;;;;;;;8.77;nan;101722.63;5052932;28;20029;-75
2021/10/08 01:00:10;;;;;;;4.20;2.40;;;;;;;8.77;nan;101725.25;5070533;28;20187;-75
2021/10/08 01:02:36;;;;;;;3.80;3.03;;;;;;;8.75;nan;101728.94;5070814;28;20104;-75
2021/10/08 01:05:01;;;;;;;5.55;3.00;;;;;;;8.83;nan;101726.59;5069983;28;20037;-75
2021/10/08 01:07:26;;;;;;;3.53;2.50;;;;;;;8.80;nan;101717.13;5070981;28;20028;-75
2021/10/08 01:09:52;;;;;;;4.18;3.03;;;;;;;8.79;nan;101714.59;5070502;28;20035;-75
2021/10/08 01:12:17;;;;;;;3.53;2.60;;;;;;;8.78;nan;101723.47;5052350;28;20413;-74
2021/10/08 01:14:42;;;;;;;3.67;2.75;;;;;;;8.77;nan;101721.75;5072845;28;20040;-75
2021/10/08 01:17:26;;;;;;;3.77;2.70;;;;;;;8.81;nan;101715.31;5069354;28;20748;-75
2021/10/08 01:19:52;;;;;;;3.50;2.60;;;;;;;8.80;nan;101719.75;5070173;28;20032;-75
2021/10/08 01:22:17;;;;;;;4.03;3.05;;;;;;;8.93;nan;101714.41;5070162;28;20043;-75
2021/10/08 01:24:43;;;;;;;4.72;2.80;;;;;;;8.83;nan;101716.06;5070343;28;20493;-75
2021/10/08 01:27:09;;;;;;;4.47;2.70;;;;;;;8.87;nan;101706.97;5070312;28;20036;-75
2021/10/08 01:29:47;;;;;;;5.00;2.75;;;;;;;8.81;nan;101713.50;5069874;28;20032;-75
2021/10/08 01:32:12;;;;;;;4.70;2.90;;;;;;;8.83;nan;101714.25;5069191;28;20028;-75
2021/10/08 01:34:38;;;;;;;3.47;2.67;;;;;;;8.83;nan;101708.97;5085014;28;20031;-75
2021/10/08 01:37:03;;;;;;;3.50;2.72;;;;;;;8.89;nan;101712.94;5051703;28;20489;-75
2021/10/08 01:39:29;;;;;;;4.00;2.70;;;;;;;8.81;nan;101715.31;5069798;28;20066;-75
2021/10/08 01:41:55;;;;;;;4.20;2.50;;;;;;;8.85;nan;101715.00;5069621;28;20460;-75
2021/10/08 01:44:20;;;;;;;4.18;2.78;;;;;;;8.89;nan;101721.72;5069238;28;20033;-75
2021/10/08 01:46:45;;;;;;;4.68;2.80;;;;;;;8.87;nan;101721.00;5069733;28;20029;-74
2021/10/08 01:49:11;;;;;;;3.42;2.70;;;;;;;8.90;nan;101714.66;5065469;28;20111;-75
2021/10/08 01:51:36;;;;;;;4.65;2.78;;;;;;;8.89;nan;101720.88;5076367;28;20401;-75
2021/10/08 01:54:02;;;;;;;4.10;2.80;;;;;;;8.93;nan;101714.41;5069247;28;20079;-75
2021/10/08 01:56:28;;;;;;;5.25;2.63;;;;;;;8.82;nan;101714.34;5068706;28;20036;-75
2021/10/08 01:58:53;;;;;;;3.45;2.60;;;;;;;8.81;nan;101716.16;5069888;28;20028;-75
2021/10/08 02:01:18;;;;;;;5.03;2.70;;;;;;;8.76;nan;101717.44;5069376;28;20044;-75
2021/10/08 02:03:46;;;;;;;;;;;;;;;8.74;nan;101712.28;5070257;28;20028;-75
2021/10/08 02:06:12;;;;;;;3.88;2.92;;;;;;;8.67;nan;101717.16;5050214;28;20276;-75
2021/10/08 02:08:37;;;;;;;;;;;;;;;8.66;nan;101718.09;5069896;28;20028;-75
2021/10/08 02:11:02;;;;;;;;;;;;;;;8.61;nan;101714.97;5069768;28;19916;-75
2021/10/08 02:13:27;;;;;;;;;;;;;;;8.56;nan;101722.38;5069691;28;19999;-74
2021/10/08 02:15:52;;;;;;;;;;;;;;;8.48;nan;101719.41;5068890;28;19920;-75
2021/10/08 02:18:18;;;;;;;4.20;3.03;;;;;;;8.45;nan;101719.63;5050805;28;19920;-75
2021/10/08 02:20:43;;;;;;;5.50;3.50;;;;;;;8.36;nan;101713.19;5062429;28;20266;-75
2021/10/08 02:23:10;;;;;;;4.82;3.45;;;;;;;8.31;nan;101717.94;5073181;28;20529;-75
2021/10/08 02:25:35;;;;;;;4.28;3.60;;;;;;;8.24;nan;101720.16;5068298;28;20501;-74
2021/10/08 02:28:01;;;;;;;6.82;3.58;;;;;;;8.37;nan;101717.53;5069783;28;20044;-74
2021/10/08 02:30:26;;;;;;;4.18;3.30;;;;;;;8.43;nan;101716.25;5068539;28;20070;-75
2021/10/08 02:32:52;;;;;;;5.13;3.22;;;;;;;8.61;nan;101714.13;5071819;28;20368;-75
2021/10/08 02:35:17;;;;;;;5.68;3.88;;;;;;;8.70;nan;101714.31;5072323;28;20028;-74
2021/10/08 02:37:42;;;;;;;4.22;3.45;;;;;;;8.74;nan;101711.44;5069254;28;20032;-74
2021/10/08 02:40:08;;;;;;;6.68;4.43;;;;;;;8.88;nan;101717.41;5068578;28;20113;-75
2021/10/08 02:42:34;;;;;;;7.28;4.03;;;;;;;8.95;nan;101717.78;5051248;28;20052;-74
2021/10/08 02:44:59;;;;;;;4.82;3.38;;;;;;;8.95;nan;101719.59;5050629;28;20397;-74
2021/10/08 02:47:25;;;;;;;5.63;3.72;;;;;;;8.95;nan;101711.69;5069018;28;20051;-74
2021/10/08 02:49:50;;;;;;;5.15;3.92;;;;;;;9.02;nan;101712.91;5068560;28;20036;-74
2021/10/08 02:52:15;;;;;;;5.90;3.80;;;;;;;9.04;nan;101717.13;5068684;28;20028;-74
2021/10/08 02:54:40;;;;;;;4.70;3.75;;;;;;;8.99;nan;101719.25;5068842;28;20489;-74
2021/10/08 02:57:06;;;;;;;5.03;3.70;;;;;;;9.03;nan;101714.59;5069125;28;20036;-74
2021/10/08 02:59:31;;;;;;;4.95;3.80;;;;;;;8.98;nan;101709.66;5069390;28;20066;-75
2021/10/08 03:01:56;;;;;;;4.70;3.97;;;;;;;9.04;nan;101711.84;5069250;28;20046;-74
2021/10/08 03:04:22;;;;;;;;;;;;;;;9.02;nan;101711.13;5071846;28;20124;-75
2021/10/08 03:06:47;;;;;;;;;;;;;;;9.02;nan;101713.75;5056014;28;19920;-75
2021/10/08 03:09:12;;;;;;;;;;;;;;;9.05;nan;101717.97;5073420;28;19925;-75
2021/10/08 03:11:37;;;;;;;6.23;4.30;;;;;;;9.02;nan;101713.75;5073087;28;19970;-75
2021/10/08 03:14:03;;;;;;;6.35;4.45;;;;;;;9.08;nan;101713.31;5072821;28;20282;-75
2021/10/08 03:16:29;;;;;;;;;;;;;;;9.13;nan;101712.97;5090753;28;20044;-76
2021/10/08 03:18:54;;;;;;;5.30;3.93;;;;;;;9.21;nan;101717.69;5054948;28;19981;-75
2021/10/08 03:21:19;;;;;;;4.77;3.70;;;;;;;9.29;nan;101717.94;5053426;28;21127;-74
2021/10/08 03:23:45;;;;;;;4.70;3.70;;;;;;;9.25;nan;101711.22;5072145;28;20489;-74
2021/10/08 03:26:11;;;;;;;7.03;3.92;;;;;;;9.35;nan;101706.94;5071435;28;20570;-75
2021/10/08 03:28:36;;;;;;;4.43;3.55;;;;;;;9.32;nan;101707.19;5072739;28;20573;-74
2021/10/08 03:31:01;;;;;;;6.40;4.20;;;;;;;9.39;nan;101700.47;5072843;28;20374;-76
2021/10/08 03:33:27;;;;;;;4.97;3.75;;;;;;;9.37;nan;101699.75;5076840;28;20378;-74
2021/10/08 03:35:52;;;;;;;8.38;4.78;;;;;;;9.47;nan;101702.53;5071685;28;20124;-75
2021/10/08 03:38:19;;;;;;;6.05;4.00;;;;;;;9.47;nan;101707.81;5072164;28;20086;-75
2021/10/08 03:41:05;;;;;;;5.97;3.83;;;;;;;9.45;nan;101709.72;5072087;28;20072;-76
2021/10/08 03:43:31;;;;;;;5.13;4.03;;;;;;;9.45;nan;101712.38;5058024;28;20029;-75
2021/10/08 03:46:01;;;;;;;6.10;3.95;;;;;;;9.45;nan;101717.66;5072225;28;20029;-75
2021/10/08 03:51:12;;;;;;;6.07;3.85;;;;;;;9.35;nan;101717.50;5083509;28;20143;-74
2021/10/08 03:53:37;;;;;;;6.35;3.88;;;;;;;9.25;nan;101719.16;5072574;28;20029;-74
2021/10/08 03:56:02;;;;;;;6.00;3.85;;;;;;;9.23;nan;101721.06;5053601;28;20037;-74
2021/10/08 03:58:28;;;;;;;6.00;4.05;;;;;;;9.24;nan;101726.19;5072387;28;20032;-74
2021/10/08 04:00:53;;;;;;;5.78;4.57;;;;;;;9.22;nan;101724.63;5072497;28;20099;-74
2021/10/08 04:03:18;;;;;;;6.32;3.88;;;;;;;9.20;nan;101727.41;5071668;28;20497;-74
2021/10/08 04:05:45;;;;;;;7.15;3.78;;;;;;;9.21;nan;101726.44;5071410;28;20068;-74
2021/10/08 04:08:10;;;;;;;5.82;4.10;;;;;;;9.16;nan;101725.09;5070862;28;20123;-73
2021/10/08 04:10:35;;;;;;;7.72;4.72;;;;;;;9.19;nan;101732.78;5071984;28;20115;-74
2021/10/08 04:13:01;;;;;;;6.68;4.32;;;;;;;9.22;nan;101729.91;5071537;28;20033;-74
2021/10/08 04:15:26;;;;;;;5.88;4.22;;;;;;;9.21;nan;101731.72;5082613;28;20028;-74
2021/10/08 04:17:51;;;;;;;6.60;4.50;;;;;;;9.14;nan;101733.97;5086540;28;20032;-75
2021/10/08 04:20:17;;;;;;;4.57;3.75;;;;;;;9.12;nan;101735.03;5070523;28;20032;-74
2021/10/08 04:22:42;;;;;;;;;;;;;;;9.09;nan;101732.63;5071550;28;20048;-74
2021/10/08 04:25:07;;;;;;;8.73;4.90;;;;;;;8.98;nan;101728.13;5070942;28;19971;-74
2021/10/08 04:27:33;;;;;;;6.60;4.20;;;;;;;9.00;nan;101738.56;5071337;28;20267;-73
2021/10/08 04:29:58;;;;;;;7.43;4.63;;;;;;;9.01;nan;101738.47;5053291;28;20036;-74
2021/10/08 04:32:23;;;;;;;6.13;4.30;;;;;;;9.01;nan;101738.47;5071077;28;20036;-74
2021/10/08 04:34:49;;;;;;;8.80;4.75;;;;;;;9.06;nan;101733.69;5074450;28;20025;-74
2021/10/08 04:37:14;;;;;;;6.60;5.07;;;;;;;8.95;nan;101730.16;5071371;28;20033;-74
2021/10/08 04:39:39;;;;;;;7.35;4.63;;;;;;;8.93;nan;101730.25;5070456;28;20041;-74
2021/10/08 04:42:05;;;;;;;7.63;4.70;;;;;;;8.91;nan;101726.88;5052762;28;20421;-74
2021/10/08 04:44:32;;;;;;;7.85;4.70;;;;;;;8.95;nan;101733.63;5070440;28;20060;-74
2021/10/08 04:46:58;;;;;;;6.78;4.68;;;;;;;8.97;nan;101726.44;5071357;28;20060;-74
2021/10/08 04:49:24;;;;;;;5.63;5.03;;;;;;;8.93;nan;101725.81;5083001;28;21368;-74
2021/10/08 04:51:49;;;;;;;7.00;4.78;;;;;;;9.02;nan;101728.75;5070730;28;20524;-75
2021/10/08 04:54:14;;;;;;;8.30;5.13;;;;;;;9.05;nan;101731.16;5070030;28;20083;-74
2021/10/08 04:56:40;;;;;;;8.18;5.45;;;;;;;9.05;nan;101728.50;5070973;28;20028;-75
2021/10/08 04:59:05;;;;;;;8.00;5.65;;;;;;;9.07;nan;101730.09;5070615;28;20478;-74
2021/10/08 05:01:30;;;;;;;7.03;5.45;;;;;;;9.09;nan;101736.09;5071011;28;20040;-74
2021/10/08 05:03:56;;;;;;;8.98;5.90;;;;;;;9.02;nan;101734.88;5070146;28;20158;-75
2021/10/08 05:06:22;;;;;;;6.53;4.90;;;;;;;9.04;nan;101732.97;5070234;28;20116;-74
2021/10/08 05:08:47;;;;;;;5.72;4.38;;;;;;;9.05;nan;101734.63;5069936;28;20085;-74
2021/10/08 05:11:13;;;;;;;7.25;5.13;;;;;;;9.08;nan;101746.75;5070965;28;20035;-74
2021/10/08 05:13:38;;;;;;;7.53;4.97;;;;;;;9.08;nan;101737.06;5070310;28;20040;-74
2021/10/08 05:16:04;;;;;;;6.22;4.60;;;;;;;9.08;nan;101737.06;5069880;28;20185;-74
2021/10/08 05:18:29;;;;;;;7.03;5.05;;;;;;;9.07;nan;101745.91;5069817;28;20037;-74
2021/10/08 05:20:55;;;;;;;8.43;4.97;;;;;;;9.00;nan;101725.38;5069963;28;20025;-74
2021/10/08 05:23:20;;;;;;;7.97;4.97;;;;;;;9.01;nan;101730.56;5070497;28;20123;-74
2021/10/08 05:25:46;;;;;;;7.97;4.95;;;;;;;8.92;nan;101734.69;5069567;28;20028;-74
2021/10/08 05:28:11;;;;;;;5.68;4.25;;;;;;;8.89;nan;101734.06;5069688;28;20531;-75
2021/10/08 05:30:37;;;;;;;7.18;5.53;;;;;;;8.98;nan;101735.19;5070210;28;20040;-74
2021/10/08 05:33:02;;;;;;;8.05;5.07;;;;;;;8.95;nan;101738.91;5074467;28;20082;-74
2021/10/08 05:35:28;;;;;;;7.90;4.80;;;;;;;8.95;nan;101738.91;5070269;28;20102;-74
2021/10/08 05:37:53;;;;;;;6.85;4.55;;;;;;;8.98;nan;101738.66;5070207;28;20060;-74
2021/10/08 05:40:19;;;;;;;7.65;5.13;;;;;;;9.01;nan;101734.97;5069438;28;20119;-74
2021/10/08 05:42:44;;;;;;;6.97;5.10;;;;;;;9.05;nan;101739.91;5070095;28;20025;-74
2021/10/08 05:45:09;;;;;;;5.72;4.35;;;;;;;9.06;nan;101738.97;5069913;28;20036;-74
2021/10/08 05:47:35;;;;;;;8.02;4.75;;;;;;;9.08;nan;101737.06;5070109;28;20058;-74
2021/10/08 05:50:00;;;;;;;8.85;5.00;;;;;;;8.99;nan;101740.38;5070746;28;20717;-74
2021/10/08 05:52:26;;;;;;;5.68;4.75;;;;;;;9.06;nan;101746.88;5068390;28;20037;-74
2021/10/08 05:54:51;;;;;;;6.82;4.53;;;;;;;9.02;nan;101742.78;5069482;28;20028;-74
2021/10/08 05:57:17;;;;;;;6.88;4.72;;;;;;;9.08;nan;101741.47;5069813;28;20578;-75
2021/10/08 05:59:44;;;;;;;7.25;4.82;;;;;;;9.10;nan;101744.84;5069643;28;20032;-74
2021/10/08 06:02:09;;;;;;;6.70;4.72;;;;;;;9.08;nan;101750.25;5067619;28;20098;-75
2021/10/08 06:04:35;;;;;;;10.00;4.70;;;;;;;9.16;nan;101748.84;5068776;28;20040;-75
2021/10/08 06:07:00;;;;;;;6.15;4.28;;;;;;;9.16;nan;101746.22;5068425;28;20091;-74
2021/10/08 06:09:25;;;;;;;6.50;4.72;;;;;;;9.19;nan;101749.47;5068500;28;20056;-75
2021/10/08 06:11:50;;;;;;;5.63;4.00;;;;;;;9.20;nan;101745.88;5069671;28;20128;-74
2021/10/08 06:14:16;;;;;;;6.45;4.90;;;;;;;9.33;nan;101745.81;5068909;28;20392;-74
2021/10/08 06:16:41;;;;;;;6.10;4.72;;;;;;;9.35;nan;101741.25;5069811;28;20549;-74
2021/10/08 06:19:06;;;;;;;5.85;4.50;;;;;;;9.48;nan;101752.56;5068387;28;20093;-74
2021/10/08 06:21:32;;;;;;;6.60;4.10;;;;;;;9.52;nan;101746.13;5069246;28;20045;-74
2021/10/08 06:23:57;;;;;;;9.50;4.85;;;;;;;9.66;nan;101745.09;5050956;28;20473;-74
2021/10/08 06:26:22;;;;;;;7.80;4.72;;;;;;;9.69;nan;101742.19;5068840;28;20036;-74
2021/10/08 06:28:48;;;;;;;5.38;4.40;;;;;;;9.78;nan;101748.59;5050075;28;20070;-75
2021/10/08 06:31:14;;;;;;;5.72;4.57;;;;;;;9.86;nan;101758.56;5067641;28;20029;-74
2021/10/08 06:33:39;;;;;;;6.35;3.83;;;;;;;10.09;nan;101760.28;5069193;28;20060;-75
2021/10/08 06:36:04;;;;;;;4.93;3.08;;;;;;;10.52;nan;101764.06;5068221;28;20036;-74
2021/10/08 06:38:30;;;;;;;4.90;3.67;;;;;;;11.05;nan;101759.75;5067765;28;20055;-74
2021/10/08 06:40:55;;;;;;;7.43;3.67;;;;;;;11.35;nan;101757.41;5069418;28;20117;-75
2021/10/08 06:43:21;;;;;;;6.50;4.15;;;;;;;11.83;nan;101767.50;5068495;28;20036;-74
2021/10/08 06:45:47;;;;;;;7.22;3.92;;;;;;;12.18;nan;101766.34;5065459;28;20044;-74
2021/10/08 06:48:12;;;;;;;9.23;4.00;;;;;;;12.68;nan;101769.06;5068401;28;20036;-74
2021/10/08 06:50:37;;;;;;;6.43;3.92;;;;;;;13.07;nan;101770.00;5081843;28;20727;-74
2021/10/08 06:53:03;;;;;;;4.93;3.53;;;;;;;13.50;nan;101770.63;5051795;28;20104;-74
2021/10/08 06:55:29;;;;;;;4.65;3.33;;;;;;;13.95;nan;101768.19;5080071;28;20481;-75
2021/10/08 06:57:54;;;;;;;7.53;3.83;;;;;;;14.43;nan;101769.84;5069104;28;20075;-74
2021/10/08 07:00:20;;;;;;;6.75;3.05;;;;;;;14.69;nan;101768.38;5068230;28;20500;-75
2021/10/08 07:02:55;;;;;;;5.88;2.83;;;;;;;14.97;nan;101764.69;5067595;28;20048;-74
2021/10/08 07:05:22;;;;;;;4.75;2.88;;;;;;;15.13;nan;101766.66;5068549;28;20032;-75
2021/10/08 07:07:49;;;;;;;4.28;2.67;;;;;;;15.54;nan;101767.06;5066500;28;20241;-75
2021/10/08 07:10:14;;;;;;;;;;;;;;;15.76;nan;101765.78;5068200;28;20064;-75
2021/10/08 07:12:40;;;;;;;4.93;3.17;;;;;;;15.86;nan;101769.16;5067070;28;20009;-75
2021/10/08 07:15:16;;;;;;;3.80;2.90;;;;;;;15.64;nan;101761.66;5070972;28;20047;-75
2021/10/08 07:17:45;;;;;;;5.55;3.53;;;;;;;14.95;nan;101758.69;5066083;28;20064;-75
2021/10/08 07:20:12;;;;;;;5.13;2.90;;;;;;;14.10;nan;101765.91;5067924;28;20028;-75
2021/10/08 07:22:37;;;;;;;4.78;3.13;;;;;;;13.52;nan;101761.53;5068546;28;20032;-75
2021/10/08 07:25:05;;;;;;;5.85;3.28;;;;;;;13.03;nan;101765.09;5068372;28;20039;-75
2021/10/08 07:27:31;;;;;;;3.47;2.60;;;;;;;12.72;nan;101765.16;5064793;28;20399;-75
2021/10/08 07:29:56;;;;;;;3.90;3.00;;;;;;;12.64;nan;101759.72;5065476;28;20897;-74
2021/10/08 07:32:21;;;;;;;4.75;3.40;;;;;;;12.18;nan;101756.59;5068022;28;20040;-75
2021/10/08 07:34:47;;;;;;;5.15;3.25;;;;;;;11.91;nan;101759.78;5067928;28;20033;-75
2021/10/08 07:37:13;;;;;;;5.78;3.85;;;;;;;11.80;nan;101760.66;5068072;28;20461;-75
2021/10/08 07:39:39;;;;;;;5.60;3.30;;;;;;;11.55;nan;101758.38;5068314;28;20516;-75
2021/10/08 07:42:05;;;;;;;6.07;3.55;;;;;;;11.70;nan;101759.75;5049570;28;20032;-76
2021/10/08 07:44:30;;;;;;;4.50;3.35;;;;;;;11.69;nan;101764.22;5067544;28;20408;-75
2021/10/08 07:46:55;;;;;;;3.73;2.80;;;;;;;11.73;nan;101770.09;5066557;28;20973;-75
2021/10/08 07:49:20;;;;;;;4.00;2.60;;;;;;;11.79;nan;101764.28;5066025;28;20935;-76
2021/10/08 07:51:46;;;;;;;5.63;3.10;;;;;;;11.80;nan;101765.97;5062481;28;20524;-75
2021/10/08 07:54:11;;;;;;;4.93;3.20;;;;;;;11.87;nan;101761.03;5053348;28;20123;-74
2021/10/08 07:56:36;;;;;;;6.65;4.00;;;;;;;11.86;nan;101767.25;5072346;28;20116;-75
2021/10/08 07:59:03;;;;;;;4.57;3.30;;;;;;;11.93;nan;101759.66;5072138;28;20068;-76
2021/10/08 08:01:29;;;;;;;4.80;3.60;;;;;;;11.94;nan;101772.78;5071328;28;20090;-76
2021/10/08 08:03:54;;;;;;;4.30;3.22;;;;;;;12.03;nan;101771.16;5071037;28;20040;-75
2021/10/08 08:06:20;;;;;;;4.95;3.40;;;;;;;12.17;nan;101768.16;5070388;28;20024;-75
2021/10/08 08:08:45;;;;;;;4.65;3.13;;;;;;;12.53;nan;101771.25;5070673;28;20444;-75
2021/10/08 08:11:10;;;;;;;5.15;3.25;;;;;;;13.46;nan;101764.72;5066177;28;20047;-76
2021/10/08 08:13:36;;;;;;;3.60;2.88;;;;;;;14.57;nan;101773.88;5070481;28;20117;-76
2021/10/08 08:16:01;;;;;;;3.60;2.50;;;;;;;15.84;nan;101567.63;5075187;28;20375;-75
2021/10/08 08:18:26;;;;;;;4.15;2.35;;;;;;;;;;5051754;28;20028;-76
2021/10/08 08:20:51;;;;;;;3.53;2.77;;;;;;;;;;5071453;28;20038;-76
2021/10/08 08:23:17;;;;;;;3.95;2.17;;;;;;;19.17;nan;101601.91;5066045;28;20362;-76
2021/10/08 08:25:43;;;;;;;2.15;1.60;;;;;;;19.46;nan;101609.16;5070780;28;20059;-76
2021/10/08 08:28:08;;;;;;;3.20;1.50;;;;;;;;;;5070949;28;20037;-75
2021/10/08 08:30:37;;;;;;;3.08;1.67;;;;;;;19.60;nan;101602.13;5067997;28;20383;-76
2021/10/08 08:33:03;;;;;;;4.65;1.50;;;;;;;;;;5070073;28;20044;-76
2021/10/08 08:35:28;;;;;;;3.33;1.80;;;;;;;;;;5070669;28;20045;-76
2021/10/08 08:37:53;;;;;;;3.20;1.87;;;;;;;;;;5070447;28;20049;-76
2021/10/08 08:40:18;;;;;;;5.63;2.00;;;;;;;20.96;nan;101624.81;5069225;28;20036;-74
2021/10/08 08:42:44;;;;;;;3.03;1.98;;;;;;;21.17;nan;101627.47;5070868;28;20035;-76
2021/10/08 08:45:10;;;;;;;2.70;1.80;;;;;;;20.99;nan;101613.66;5070677;28;20032;-76
2021/10/08 08:47:36;;;;;;;3.33;1.45;;;;;;;21.14;nan;101638.63;5071150;28;20036;-77
2021/10/08 08:50:01;;;;;;;3.60;2.00;;;;;;;;;;5072113;28;20402;-76
2021/10/08 08:52:26;;;;;;;3.75;1.98;;;;;;;21.77;nan;101602.84;5071506;28;20040;-76
2021/10/08 08:54:53;;;;;;;1.52;1.08;;;;;;;21.49;nan;101627.09;5070881;28;20028;-76
2021/10/08 08:57:21;;;;;;;3.58;1.60;;;;;;;21.99;nan;101754.38;5069696;28;20063;-76
2021/10/08 09:00:04;;;;;;;3.70;1.95;;;;;;;22.58;nan;101755.75;5061335;28;20452;-76
2021/10/08 09:02:32;;;;;;;2.38;1.30;;;;;;;22.48;nan;101751.56;5050556;28;20055;-75
2021/10/08 09:04:57;;;;;;;3.35;1.60;;;;;;;21.59;nan;101748.69;5070346;28;20032;-74
2021/10/08 09:07:29;;;;;;;1.83;1.08;;;;;;;22.03;nan;101743.00;5070795;28;20098;-76
2021/10/08 09:09:54;;;;;;;2.60;1.60;;;;;;;22.93;nan;101742.16;5064634;28;20575;-76
2021/10/08 09:12:19;;;;;;;3.97;2.13;;;;;;;23.54;nan;101742.03;5063279;28;20036;-76
2021/10/08 09:14:45;;;;;;;2.17;1.40;;;;;;;23.37;nan;101749.72;5059905;28;20441;-76
2021/10/08 09:17:18;;;;;;;1.90;1.10;;;;;;;23.95;nan;101741.84;5046795;28;20066;-73
2021/10/08 09:19:53;;;;;;;2.75;1.88;;;;;;;23.19;nan;101739.56;5070312;28;20037;-75
2021/10/08 09:22:38;;;;;;;3.50;1.55;;;;;;;22.36;nan;101738.88;5052016;28;20093;-75
2021/10/08 09:25:20;;;;;;;3.30;1.45;;;;;;;22.21;nan;101733.59;5070353;28;20043;-75
2021/10/08 09:27:48;;;;;;;3.83;1.42;;;;;;;21.51;nan;101728.13;5070799;28;20068;-76
2021/10/08 09:30:14;;;;;;;1.92;1.48;;;;;;;21.37;nan;101735.22;5069713;28;20048;-75
2021/10/08 09:32:49;;;;;;;3.20;1.67;;;;;;;21.54;nan;101740.38;5071782;28;20043;-76
2021/10/08 09:35:17;;;;;;;2.55;1.45;;;;;;;20.21;nan;101744.22;5075431;28;20040;-75
2021/10/08 09:37:45;;;;;;;3.15;1.50;;;;;;;20.03;nan;101741.94;5069899;28;20067;-74
2021/10/08 09:40:30;;;;;;;2.67;1.38;;;;;;;19.19;nan;101737.47;5069523;28;20079;-74
2021/10/08 09:43:02;;;;;;;3.00;1.80;;;;;;;18.57;nan;101734.81;5063527;28;20061;-74
2021/10/08 09:45:35;;;;;;;4.22;2.10;;;;;;;18.09;nan;101741.97;5069829;28;20028;-74
2021/10/08 09:48:01;;;;;;;3.83;1.95;;;;;;;18.03;nan;101735.50;5055641;28;20355;-74
2021/10/08 09:50:26;;;;;;;3.30;1.80;;;;;;;18.16;nan;101742.97;5072212;28;20496;-75
2021/10/08 09:53:11;;;;;;;3.42;2.22;;;;;;;18.48;nan;101733.16;5069607;28;20060;-75
2021/10/08 09:55:36;;;;;;;3.60;1.90;;;;;;;17.72;nan;101735.34;5069507;28;20044;-74
2021/10/08 09:58:02;;;;;;;3.28;2.15;;;;;;;17.62;nan;101733.69;5070263;28;20036;-74
2021/10/08 10:00:43;;;;;;;2.60;1.95;;;;;;;17.27;nan;101736.69;5068058;28;20047;-74
2021/10/08 10:03:10;;;;;;;4.10;1.95;;;;;;;16.92;nan;101736.81;5070209;28;20514;-77
2021/10/08 10:05:36;;;;;;;4.28;2.80;;;;;;;17.07;nan;101742.34;5058781;28;20024;-76
2021/10/08 10:08:02;;;;;;;5.53;3.47;;;;;;;16.73;nan;101729.91;5062443;28;20402;-76
2021/10/08 10:10:28;;;;;;;4.88;2.78;;;;;;;16.82;nan;101737.97;5063437;28;20039;-73
2021/10/08 10:12:55;;;;;;;4.63;3.22;;;;;;;16.88;nan;101740.81;5051703;28;20024;-73
2021/10/08 10:15:21;;;;;;;5.60;3.58;;;;;;;16.92;nan;101739.50;5069208;28;20029;-73
2021/10/08 10:17:47;;;;;;;4.75;3.50;;;;;;;16.81;nan;101736.31;5077736;28;20035;-74
2021/10/08 10:20:14;;;;;;;4.05;3.10;;;;;;;16.75;nan;101743.06;5068918;28;20158;-76
2021/10/08 10:22:41;;;;;;;6.13;3.42;;;;;;;16.72;nan;101733.56;5058441;28;20389;-76
2021/10/08 10:25:09;;;;;;;4.60;3.70;;;;;;;16.81;nan;101736.31;5051282;28;20044;-76
2021/10/08 10:27:35;;;;;;;4.90;3.42;;;;;;;16.83;nan;101739.63;5050847;28;20112;-76
2021/10/08 10:30:01;;;;;;;6.68;3.80;;;;;;;16.91;nan;101742.31;5069394;28;20573;-73
2021/10/08 10:32:26;;;;;;;6.40;3.90;;;;;;;16.79;nan;101744.47;5051245;28;20127;-76
2021/10/08 10:34:52;;;;;;;6.53;3.60;;;;;;;16.88;nan;101750.69;5070036;28;20032;-76
2021/10/08 10:37:41;;;;;;;4.13;3.10;;;;;;;17.13;nan;101744.34;5075781;28;20028;-75
2021/10/08 10:40:23;;;;;;;6.03;4.32;;;;;;;17.02;nan;101742.03;5051003;28;20036;-74
2021/10/08 10:43:14;;;;;;;6.28;4.38;;;;;;;16.85;nan;101737.63;5068834;28;20464;-76
2021/10/08 10:45:44;;;;;;;5.82;4.13;;;;;;;16.94;nan;101742.00;5071372;28;20236;-73
2021/10/08 10:48:22;;;;;;;6.47;4.00;;;;;;;16.87;nan;101730.28;5068340;28;20043;-74
2021/10/08 10:51:11;;;;;;;5.88;4.20;;;;;;;17.05;nan;101733.66;5068646;28;20043;-75
2021/10/08 10:53:50;;;;;;;5.25;4.00;;;;;;;16.88;nan;101730.13;5051328;28;20037;-74
2021/10/08 10:56:41;;;;;;;5.72;3.85;;;;;;;16.88;nan;101734.66;5050111;28;20035;-73
2021/10/08 10:59:21;;;;;;;5.82;4.25;;;;;;;16.88;nan;101738.16;5068428;28;20041;-74
2021/10/08 11:02:03;;;;;;;6.30;4.30;;;;;;;16.94;nan;101733.97;5068886;28;20106;-75
2021/10/08 11:04:28;;;;;;;;;;;;;;;16.77;nan;101728.56;5065427;28;20041;-74
2021/10/08 11:07:14;;;;;;;5.40;4.03;;;;;;;16.72;nan;101722.88;5051456;28;19916;-74
2021/10/08 11:10:04;;;;;;;5.78;4.55;;;;;;;16.66;nan;101723.53;5065058;28;20389;-74
2021/10/08 11:12:34;;;;;;;5.97;4.35;;;;;;;16.65;nan;101711.16;5068084;28;20040;-73
2021/10/08 11:15:17;;;;;;;5.17;4.07;;;;;;;16.71;nan;101721.22;5050779;28;20052;-74
2021/10/08 11:17:56;;;;;;;7.82;5.43;;;;;;;16.68;nan;101718.84;5069251;28;20029;-73
2021/10/08 11:20:45;;;;;;;6.82;4.63;;;;;;;16.64;nan;101717.53;5062510;28;20048;-73
2021/10/08 11:23:21;;;;;;;6.43;4.50;;;;;;;16.66;nan;101712.84;5049833;28;20090;-72
2021/10/08 11:25:48;;;;;;;8.00;5.57;;;;;;;16.84;nan;101706.56;5070798;28;20033;-72
2021/10/08 11:28:15;;;;;;;7.65;5.22;;;;;;;16.63;nan;101704.31;5070479;28;20531;-72
2021/10/08 11:30:41;;;;;;;7.18;4.97;;;;;;;16.65;nan;101707.66;5054402;28;20447;-73
2021/10/08 11:33:06;;;;;;;7.47;4.63;;;;;;;16.74;nan;101704.03;5076836;28;20040;-73
2021/10/08 11:35:34;;;;;;;6.50;4.85;;;;;;;16.73;nan;101699.66;5077452;28;20062;-73
2021/10/08 11:38:00;;;;;;;6.45;4.45;;;;;;;16.65;nan;101700.47;5071621;28;20420;-73
2021/10/08 11:40:36;;;;;;;6.57;4.80;;;;;;;16.75;nan;101700.34;5071080;28;20040;-73
2021/10/08 11:43:09;;;;;;;7.05;4.93;;;;;;;16.67;nan;101703.84;5072127;28;20067;-73
2021/10/08 11:45:52;;;;;;;9.40;5.07;;;;;;;16.65;nan;101686.31;5071068;28;20029;-73
2021/10/08 11:48:27;;;;;;;6.88;4.55;;;;;;;16.75;nan;101690.47;5069050;28;20485;-73
2021/10/08 11:53:18;;;;;;;6.82;5.03;;;;;;;16.70;nan;101682.13;5071619;28;20493;-73
2021/10/08 11:55:43;;;;;;;15.02;4.97;;;;;;;16.58;nan;101678.09;5053122;28;20040;-73
2021/10/08 11:58:11;;;;;;;6.20;4.53;;;;;;;16.58;nan;101672.75;5069794;28;20113;-73
2021/10/08 12:00:47;;;;;;;7.70;5.05;;;;;;;16.44;nan;101676.06;5070624;28;20378;-73